Time;durP1;ratioP1;P1;durP2;ratioP2;P2;SDS_P1;SDS_P2;PMS_P1;PMS_P2;Temp;Humidity;BMP_temperature;BMP_pressure;BME280_temperature;BME280_humidity;BME280_pressure;Samples;Min_cycle;Max_cycle;Signal;HPM_P1;HPM_P2
2023/05/20 00:00:10;;;;;;;6.72;4.70;;;;;;;15.26;100.00;100674.34;5017463;28;20923;-73
2023/05/20 00:02:36;;;;;;;5.70;3.78;;;;;;;15.23;100.00;100666.47;5018631;28;20041;-76
2023/05/20 00:05:01;;;;;;;6.78;3.95;;;;;;;15.28;100.00;100685.78;5010714;28;20046;-79
2023/05/20 00:07:27;;;;;;;7.10;4.50;;;;;;;16.11;100.00;100808.88;5014140;28;20088;-76
2023/05/20 00:09:52;;;;;;;5.65;3.60;;;;;;;15.45;100.00;100695.22;5018733;28;20062;-76
2023/05/20 00:12:18;;;;;;;9.13;4.70;;;;;;;16.27;100.00;100816.56;5015505;28;20045;-77
2023/05/20 00:14:43;;;;;;;5.97;3.85;;;;;;;16.13;100.00;100809.72;5042263;28;20042;-74
2023/05/20 00:17:09;;;;;;;5.68;3.47;;;;;;;16.23;100.00;100819.25;5016370;28;20053;-74
2023/05/20 00:19:35;;;;;;;6.88;4.25;;;;;;;15.66;100.00;100723.97;5004338;28;20576;-78
2023/05/20 00:22:01;;;;;;;7.07;3.95;;;;;;;16.10;100.00;100779.78;5005353;28;20042;-78
2023/05/20 00:24:27;;;;;;;7.40;4.50;;;;;;;16.27;100.00;100814.78;5006206;28;20041;-74
2023/05/20 00:26:52;;;;;;;6.25;3.97;;;;;;;15.76;100.00;100709.75;5017667;28;20389;-77
2023/05/20 00:29:20;;;;;;;6.03;4.18;;;;;;;16.24;100.00;100801.59;5016895;28;20080;-77
2023/05/20 00:31:46;;;;;;;5.15;3.75;;;;;;;16.09;100.00;100794.78;5009695;28;20066;-80
2023/05/20 00:34:11;;;;;;;10.43;4.00;;;;;;;16.21;100.00;100791.06;5006500;28;20054;-80
2023/05/20 00:36:36;;;;;;;6.47;4.63;;;;;;;15.48;100.00;100663.47;5011010;28;20053;-75
2023/05/20 00:39:02;;;;;;;11.98;5.22;;;;;;;16.19;100.00;100782.25;5012800;28;20111;-77
2023/05/20 00:41:27;;;;;;;7.22;4.93;;;;;;;15.48;100.00;100664.34;5008482;28;20470;-76
2023/05/20 00:43:53;;;;;;;8.95;5.70;;;;;;;16.21;100.00;100794.56;5005703;28;20049;-75
2023/05/20 00:46:19;;;;;;;8.27;5.13;;;;;;;15.56;100.00;100686.22;5006294;28;20143;-73
2023/05/20 00:48:45;;;;;;;7.55;4.30;;;;;;;16.07;100.00;100786.00;5007115;28;20046;-74
2023/05/20 00:51:12;;;;;;;8.48;3.83;;;;;;;15.69;100.00;100712.50;5008546;28;20769;-74
2023/05/20 00:53:38;;;;;;;8.20;4.72;;;;;;;15.93;100.00;100735.06;4999524;28;20044;-77
2023/05/20 00:56:04;;;;;;;6.75;4.63;;;;;;;16.10;100.00;100779.78;5011833;28;20045;-75
2023/05/20 00:58:31;;;;;;;10.00;4.13;;;;;;;15.79;100.00;100728.22;5016773;28;20099;-76
2023/05/20 01:00:56;;;;;;;8.95;4.18;;;;;;;15.74;100.00;100732.72;5013894;28;20042;-75
2023/05/20 01:03:22;;;;;;;12.05;4.43;;;;;;;15.11;100.00;100621.75;5006330;28;20072;-75
2023/05/20 01:05:47;;;;;;;6.72;4.70;;;;;;;15.13;100.00;100625.22;4998428;28;20038;-75
2023/05/20 01:08:13;;;;;;;6.47;4.28;;;;;;;15.95;100.00;100749.16;5011850;28;20049;-77
2023/05/20 01:10:43;;;;;;;7.85;4.78;;;;;;;15.66;100.00;100715.19;5003324;28;20080;-78
2023/05/20 01:13:15;;;;;;;7.50;5.07;;;;;;;15.06;100.00;100611.22;5010362;28;20093;-74
2023/05/20 01:15:43;;;;;;;9.93;5.10;;;;;;;15.92;100.00;100752.72;5014711;28;20048;-74
2023/05/20 01:18:09;;;;;;;9.05;5.65;;;;;;;15.22;100.00;100646.25;5008899;28;20069;-78
2023/05/20 01:20:36;;;;;;;8.55;4.40;;;;;;;15.85;100.00;100752.81;5009835;28;20466;-76
2023/05/20 01:23:02;;;;;;;10.75;4.63;;;;;;;15.13;100.00;100635.81;5007763;28;20071;-75
2023/05/20 01:25:28;;;;;;;11.50;5.53;;;;;;;15.18;100.00;100641.91;5020496;28;20090;-77
2023/05/20 01:27:56;;;;;;;9.40;5.65;;;;;;;15.32;100.00;100676.06;5014216;28;20494;-77
2023/05/20 01:30:26;;;;;;;6.72;4.45;;;;;;;15.14;100.00;100642.81;5016203;28;20053;-74
2023/05/20 01:32:56;;;;;;;10.75;5.32;;;;;;;15.71;100.00;100732.78;5021047;28;20078;-74
2023/05/20 01:35:23;;;;;;;6.55;4.10;;;;;;;15.85;100.00;100769.59;5023707;28;20064;-74
2023/05/20 01:37:51;;;;;;;7.53;4.22;;;;;;;15.53;100.00;100718.03;5017226;28;20056;-72
2023/05/20 01:40:17;;;;;;;6.07;3.67;;;;;;;15.45;100.00;100701.38;5017506;28;20061;-79
2023/05/20 01:42:45;;;;;;;6.15;3.67;;;;;;;15.71;100.00;100761.88;5018477;28;20064;-74
2023/05/20 01:45:11;;;;;;;8.05;5.55;;;;;;;15.56;100.00;100747.06;5020982;28;20029;-76
2023/05/20 01:47:36;;;;;;;7.45;5.55;;;;;;;15.01;100.00;100662.41;5013195;28;20454;-75
2023/05/20 01:50:02;;;;;;;11.45;7.18;;;;;;;14.94;100.00;100662.50;5020710;28;20840;-73
2023/05/20 01:52:27;;;;;;;7.88;4.82;;;;;;;15.03;100.00;100690.56;5015865;28;20037;-75
2023/05/20 01:54:53;;;;;;;9.73;6.32;;;;;;;14.76;100.00;100650.41;5007882;28;20041;-76
2023/05/20 01:57:20;;;;;;;7.90;5.05;;;;;;;15.31;100.00;100746.56;5009507;28;20486;-77
2023/05/20 01:59:46;;;;;;;10.70;5.28;;;;;;;14.92;100.00;100672.22;5013283;28;20635;-73
2023/05/20 02:02:12;;;;;;;7.97;4.10;;;;;;;14.65;100.00;100623.25;5015360;28;20057;-75
2023/05/20 02:04:38;;;;;;;10.55;5.10;;;;;;;14.55;100.00;100613.72;5013145;28;20393;-77
2023/05/20 02:07:04;;;;;;;8.48;5.15;;;;;;;15.14;100.00;100716.84;5007518;28;20057;-76
2023/05/20 02:09:29;;;;;;;9.10;5.32;;;;;;;14.65;100.00;100631.19;5010485;28;20045;-75
2023/05/20 02:11:55;;;;;;;7.95;5.00;;;;;;;15.22;100.00;100751.09;5012316;28;20133;-75
2023/05/20 02:14:20;;;;;;;7.28;4.95;;;;;;;15.34;100.00;100766.81;5020255;28;20586;-75
2023/05/20 02:16:46;;;;;;;8.98;5.03;;;;;;;15.14;100.00;100741.50;5011476;28;20060;-74
2023/05/20 02:19:12;;;;;;;9.60;6.60;;;;;;;14.59;100.00;100646.25;5013923;28;20148;-75
2023/05/20 02:21:41;;;;;;;7.50;5.40;;;;;;;15.21;100.00;100755.50;5009468;28;20128;-74
2023/05/20 02:24:07;;;;;;;10.07;5.95;;;;;;;15.16;100.00;100774.06;5004063;28;20087;-75
2023/05/20 02:26:33;;;;;;;7.97;5.60;;;;;;;15.19;100.00;100760.84;5017637;28;20393;-77
2023/05/20 02:28:59;;;;;;;9.93;5.63;;;;;;;14.33;100.00;100621.00;5012558;28;20062;-78
2023/05/20 02:31:24;;;;;;;9.85;6.50;;;;;;;15.10;100.00;100754.78;5022042;28;20446;-74
2023/05/20 02:33:50;;;;;;;24.25;5.55;;;;;;;15.16;100.00;100771.44;5019079;28;20044;-74
2023/05/20 02:36:16;;;;;;;11.25;7.05;;;;;;;15.14;100.00;100759.13;5017022;28;20088;-75
2023/05/20 02:38:41;;;;;;;10.23;5.22;;;;;;;14.99;100.00;100741.72;5022613;28;20026;-79
2023/05/20 02:41:07;;;;;;;11.27;6.60;;;;;;;14.50;100.00;100661.28;5007708;28;20179;-76
2023/05/20 02:43:33;;;;;;;8.48;6.03;;;;;;;14.79;100.00;100728.75;5020448;28;20041;-77
2023/05/20 02:45:59;;;;;;;7.03;4.88;;;;;;;14.27;100.00;100640.41;5019939;28;20071;-77
2023/05/20 02:48:25;;;;;;;12.48;5.38;;;;;;;14.89;100.00;100755.91;5014405;28;20088;-79
2023/05/20 02:50:51;;;;;;;9.60;4.60;;;;;;;14.97;100.00;100762.88;5014128;28;20112;-74
2023/05/20 02:53:17;;;;;;;9.07;5.40;;;;;;;14.10;100.00;100616.88;5012825;28;20044;-78
2023/05/20 02:55:48;;;;;;;10.40;5.57;;;;;;;14.78;100.00;100746.38;5008456;28;20038;-78
2023/05/20 02:58:14;;;;;;;9.25;5.35;;;;;;;14.08;100.00;100634.47;5007099;28;20080;-78
2023/05/20 03:00:40;;;;;;;9.32;5.57;;;;;;;14.21;100.00;100660.72;5006864;28;20042;-77
2023/05/20 03:03:06;;;;;;;7.88;5.45;;;;;;;14.61;100.00;100752.72;5009062;28;20018;-78
2023/05/20 03:05:36;;;;;;;12.05;5.93;;;;;;;14.84;100.00;100765.66;5010322;28;20021;-75
2023/05/20 03:08:02;;;;;;;11.60;6.85;;;;;;;14.56;100.00;100740.47;5008881;28;20045;-76
2023/05/20 03:10:27;;;;;;;12.52;5.28;;;;;;;14.02;100.00;100641.56;5011752;28;20034;-76
2023/05/20 03:12:53;;;;;;;8.52;5.63;;;;;;;14.69;100.00;100764.97;5007737;28;20049;-75
2023/05/20 03:15:19;;;;;;;9.05;5.38;;;;;;;14.08;100.00;100673.19;5008702;28;20049;-75
2023/05/20 03:17:44;;;;;;;12.90;6.45;;;;;;;14.54;100.00;100746.66;5006768;28;20521;-78
2023/05/20 03:20:11;;;;;;;10.05;5.70;;;;;;;13.90;100.00;100638.16;5008524;28;20070;-76
2023/05/20 03:22:36;;;;;;;9.20;5.88;;;;;;;14.12;100.00;100682.84;5004024;28;20053;-74
2023/05/20 03:25:04;;;;;;;11.93;7.63;;;;;;;14.09;100.00;100696.03;5005432;28;20075;-75
2023/05/20 03:27:29;;;;;;;9.50;6.55;;;;;;;14.57;100.00;100770.38;5009460;28;20041;-76
2023/05/20 03:29:55;;;;;;;10.18;5.70;;;;;;;14.33;100.00;100727.47;5013871;28;20034;-75
2023/05/20 03:32:20;;;;;;;10.70;5.97;;;;;;;14.48;100.00;100763.38;5018627;28;20029;-77
2023/05/20 03:34:46;;;;;;;10.07;5.85;;;;;;;13.79;100.00;100634.78;5018762;28;20494;-75
2023/05/20 03:37:11;;;;;;;11.82;5.85;;;;;;;14.04;100.00;100661.78;5015034;28;20041;-75
2023/05/20 03:39:37;;;;;;;9.38;6.25;;;;;;;13.90;100.00;100661.91;5048276;28;20048;-74
2023/05/20 03:42:02;;;;;;;10.57;7.28;;;;;;;14.03;100.00;100681.16;5015083;28;20030;-74
2023/05/20 03:44:28;;;;;;;9.18;5.95;;;;;;;14.55;100.00;100754.53;5019546;28;20029;-76
2023/05/20 03:46:53;;;;;;;8.95;5.50;;;;;;;14.62;100.00;100771.19;5013695;28;20045;-74
2023/05/20 03:49:19;;;;;;;9.45;5.38;;;;;;;14.72;100.00;100795.75;5015278;28;20997;-76
2023/05/20 03:51:44;;;;;;;11.93;6.20;;;;;;;14.71;100.00;100780.81;5013600;28;20053;-76
2023/05/20 03:54:10;;;;;;;10.57;6.38;;;;;;;14.69;100.00;100767.59;5002542;28;20041;-75
2023/05/20 03:56:36;;;;;;;9.10;6.13;;;;;;;14.82;100.00;100796.50;5006617;28;20057;-74
2023/05/20 03:59:01;;;;;;;11.18;5.65;;;;;;;14.80;100.00;100772.78;5007553;28;20084;-75
2023/05/20 04:01:27;;;;;;;11.73;6.18;;;;;;;14.28;100.00;100678.25;5009168;28;20128;-75
2023/05/20 04:03:52;;;;;;;9.05;5.72;;;;;;;14.46;100.00;100699.16;5006574;28;20049;-76
2023/05/20 04:06:18;;;;;;;9.70;7.60;;;;;;;14.50;100.00;100715.84;5008351;28;20046;-78
2023/05/20 04:08:44;;;;;;;14.98;8.55;;;;;;;14.63;100.00;100728.03;5010338;28;20040;-74
2023/05/20 04:11:10;;;;;;;12.20;7.53;;;;;;;14.82;100.00;100778.03;5006644;28;20046;-78
2023/05/20 04:13:35;;;;;;;10.10;6.35;;;;;;;15.09;100.00;100797.97;5007635;28;20107;-76
2023/05/20 04:16:01;;;;;;;10.00;6.85;;;;;;;14.79;100.00;100752.50;5041360;28;20115;-79
2023/05/20 04:18:30;;;;;;;11.52;7.43;;;;;;;14.97;100.00;100773.44;5009085;28;20038;-76
2023/05/20 04:20:56;;;;;;;9.80;6.57;;;;;;;15.07;100.00;100810.31;5006960;28;20029;-78
2023/05/20 04:23:22;;;;;;;9.70;6.50;;;;;;;15.09;100.00;100795.31;5001135;28;20041;-74
2023/05/20 04:25:48;;;;;;;14.40;6.78;;;;;;;15.24;100.00;100829.50;5014156;28;20049;-77
2023/05/20 04:28:15;;;;;;;10.45;6.97;;;;;;;14.97;100.00;100778.72;5009447;28;20068;-76
2023/05/20 04:30:41;;;;;;;13.32;6.90;;;;;;;15.35;100.00;100834.66;5013542;28;20041;-75
2023/05/20 04:33:07;;;;;;;16.85;6.70;;;;;;;15.47;100.00;100825.69;5007313;28;20041;-75
2023/05/20 04:35:33;;;;;;;9.50;6.65;;;;;;;15.59;100.00;100836.09;5021465;28;20592;-75
2023/05/20 04:38:00;;;;;;;11.75;7.68;;;;;;;15.51;100.00;100785.94;5013035;28;20050;-76
2023/05/20 04:40:26;;;;;;;8.10;5.22;;;;;;;15.67;100.00;100810.41;5013357;28;20052;-76
2023/05/20 04:42:51;;;;;;;12.10;7.57;;;;;;;14.96;100.00;100678.31;5013704;28;20038;-75
2023/05/20 04:45:17;;;;;;;8.90;6.13;;;;;;;15.87;100.00;100830.44;5011735;28;20048;-76
2023/05/20 04:47:44;;;;;;;12.60;5.70;;;;;;;16.11;100.00;100853.88;5017214;28;20458;-76
2023/05/20 04:50:11;;;;;;;10.50;6.70;;;;;;;16.08;100.00;100861.00;5016991;28;20046;-77
2023/05/20 04:52:44;;;;;;;9.15;7.63;;;;;;;16.03;100.00;100827.50;5017699;28;20042;-76
2023/05/20 04:55:12;;;;;;;11.05;6.57;;;;;;;16.33;100.00;100880.03;5015600;28;20049;-77
2023/05/20 04:57:40;;;;;;;7.93;4.45;;;;;;;16.32;100.00;100860.63;5010979;28;20086;-76
2023/05/20 05:00:11;;;;;;;12.55;7.00;;;;;;;16.48;100.00;100876.22;5010527;28;20037;-76
2023/05/20 05:02:37;;;;;;;9.15;5.85;;;;;;;16.01;100.00;100756.97;5042983;28;20037;-74
2023/05/20 05:05:02;;;;;;;9.43;5.75;;;;;;;16.52;100.00;100788.72;5042781;28;20042;-74
2023/05/20 05:07:28;;;;;;;9.15;6.45;;;;;;;15.66;100.00;100604.06;5008724;28;20052;-80
2023/05/20 05:09:53;;;;;;;13.80;5.55;;;;;;;17.63;100.00;100898.81;5011908;28;20406;-76
2023/05/20 05:12:18;;;;;;;9.85;7.35;;;;;;;17.92;100.00;100863.69;5010432;28;20115;-77
2023/05/20 05:14:44;;;;;;;8.98;6.55;;;;;;;18.10;100.00;100795.13;5011647;28;20076;-75
2023/05/20 05:17:09;;;;;;;12.32;5.68;;;;;;;18.24;100.00;100838.16;5008726;28;20132;-74
2023/05/20 05:19:35;;;;;;;10.57;4.80;;;;;;;17.91;100.00;100811.50;5009697;28;20049;-76
2023/05/20 05:22:00;;;;;;;9.93;6.03;;;;;;;18.57;100.00;100931.22;5010218;28;20054;-76
2023/05/20 05:24:26;;;;;;;7.95;4.78;;;;;;;18.63;100.00;100851.31;5008002;28;20048;-79
2023/05/20 05:26:56;;;;;;;7.25;4.55;;;;;;;18.54;100.00;100847.13;5016590;28;20029;-73
2023/05/20 05:29:21;;;;;;;8.25;5.20;;;;;;;18.34;100.00;100830.81;5031104;28;20107;-76
2023/05/20 05:31:47;;;;;;;9.43;5.47;;;;;;;19.01;100.00;100949.63;5028915;28;20824;-74
2023/05/20 05:34:12;;;;;;;9.13;5.10;;;;;;;19.07;100.00;100867.03;5023661;28;20058;-75
2023/05/20 05:36:39;;;;;;;10.95;5.88;;;;;;;19.61;100.00;100957.72;5006575;28;20052;-75
2023/05/20 05:39:05;;;;;;;10.65;5.53;;;;;;;19.21;100.00;100835.56;5005348;28;20387;-74
2023/05/20 05:41:30;;;;;;;9.50;5.15;;;;;;;20.06;100.00;100864.97;5009283;28;20044;-76
2023/05/20 05:43:57;;;;;;;10.98;6.40;;;;;;;20.74;100.00;100917.84;5010493;28;20739;-75
2023/05/20 05:46:22;;;;;;;6.53;4.45;;;;;;;20.76;100.00;100909.78;5013421;28;20177;-77
2023/05/20 05:48:49;;;;;;;5.90;3.58;;;;;;;21.05;100.00;100917.66;5013847;28;20089;-81
2023/05/20 05:51:15;;;;;;;7.38;4.50;;;;;;;20.33;100.00;100777.94;5007145;28;20122;-74
2023/05/20 05:53:40;;;;;;;10.65;5.18;;;;;;;21.54;100.00;100956.88;5018075;28;20038;-77
2023/05/20 05:56:06;;;;;;;6.18;3.95;;;;;;;21.43;100.00;100952.81;5009918;28;20735;-77
2023/05/20 05:58:32;;;;;;;7.25;4.13;;;;;;;21.05;100.00;100882.09;5004467;28;20065;-76
2023/05/20 06:00:58;;;;;;;8.23;4.32;;;;;;;21.39;100.00;100891.53;5016009;28;20071;-76
2023/05/20 06:03:23;;;;;;;7.35;4.80;;;;;;;21.40;100.00;100887.97;5008715;28;20725;-76
2023/05/20 06:05:49;;;;;;;7.30;3.80;;;;;;;21.53;100.00;100981.84;5012047;28;20397;-77
2023/05/20 06:08:15;;;;;;;8.43;4.22;;;;;;;21.28;100.00;100956.88;5017046;28;20053;-77
2023/05/20 06:10:41;;;;;;;6.88;4.68;;;;;;;21.34;100.00;100955.78;5009681;28;20046;-76
2023/05/20 06:13:06;;;;;;;9.35;5.57;;;;;;;21.75;100.00;100867.94;5009274;28;20061;-77
2023/05/20 06:15:32;;;;;;;7.30;3.58;;;;;;;22.10;100.00;100985.91;5004328;28;20046;-71
2023/05/20 06:17:57;;;;;;;6.70;3.88;;;;;;;21.67;100.00;100851.31;5009884;28;20042;-71
2023/05/20 06:20:23;;;;;;;8.77;5.32;;;;;;;22.41;100.00;100859.94;5006307;28;20044;-71
2023/05/20 06:22:48;;;;;;;8.23;5.10;;;;;;;21.74;100.00;100860.84;5009261;28;20049;-82
2023/05/20 06:25:14;;;;;;;6.95;4.43;;;;;;;22.45;100.00;100955.16;5007301;28;20037;-77
2023/05/20 06:27:39;;;;;;;8.55;5.07;;;;;;;22.15;100.00;100957.22;5010308;28;20512;-79
2023/05/20 06:30:05;;;;;;;8.52;4.80;;;;;;;21.98;100.00;100836.75;5003103;28;20041;-76
2023/05/20 06:32:30;;;;;;;7.28;5.03;;;;;;;20.62;100.00;100945.78;5037704;28;20030;-77
2023/05/20 06:34:56;;;;;;;8.05;4.75;;;;;;;21.40;100.00;100934.25;5009877;28;20054;-82
2023/05/20 06:37:24;;;;;;;6.90;3.88;;;;;;;20.92;100.00;100934.16;5003160;28;20413;-76
2023/05/20 06:39:52;;;;;;;5.55;3.92;;;;;;;21.06;100.00;100827.78;5011364;28;20053;-77
2023/05/20 06:42:19;;;;;;;6.13;3.65;;;;;;;21.10;100.00;100828.56;5014362;28;20041;-77
2023/05/20 06:44:45;;;;;;;7.60;5.50;;;;;;;20.36;100.00;100892.44;5002848;28;20845;-74
2023/05/20 06:47:14;;;;;;;9.10;5.03;;;;;;;20.98;100.00;100920.59;5033860;28;20041;-75
2023/05/20 06:49:39;;;;;;;5.95;4.10;;;;;;;20.87;100.00;100934.31;5037663;28;20063;-77
2023/05/20 06:52:05;;;;;;;7.80;4.60;;;;;;;21.24;100.00;100915.19;5036523;28;20041;-76
2023/05/20 06:54:33;;;;;;;8.15;4.32;;;;;;;20.43;100.00;100828.19;5044644;28;20053;-76
2023/05/20 06:56:58;;;;;;;7.38;4.50;;;;;;;20.30;100.00;100871.31;5038237;28;20041;-77
2023/05/20 06:59:24;;;;;;;7.95;4.63;;;;;;;20.75;100.00;100924.94;5029668;28;20029;-75
2023/05/20 07:01:49;;;;;;;6.15;3.58;;;;;;;20.80;100.00;100922.09;5028441;28;20501;-75
2023/05/20 07:04:15;;;;;;;10.48;6.43;;;;;;;20.69;100.00;100871.78;5034052;28;20045;-74
2023/05/20 07:06:40;;;;;;;7.28;4.57;;;;;;;20.31;100.00;100801.97;5035670;28;20042;-77
2023/05/20 07:09:06;;;;;;;6.07;4.38;;;;;;;20.39;100.00;100922.53;5034496;28;20044;-77
2023/05/20 07:11:33;;;;;;;11.82;5.38;;;;;;;20.09;100.00;100817.81;5032236;28;20029;-78
2023/05/20 07:13:58;;;;;;;5.65;4.18;;;;;;;19.80;100.00;100771.66;5027145;28;20045;-76
2023/05/20 07:16:24;;;;;;;16.13;6.13;;;;;;;20.69;100.00;100892.25;5009857;28;20508;-77
2023/05/20 07:18:49;;;;;;;6.32;4.70;;;;;;;19.98;100.00;100814.63;5020543;28;20095;-72
2023/05/20 07:21:15;;;;;;;8.85;5.50;;;;;;;20.87;100.00;100911.16;5009192;28;20033;-73
2023/05/20 07:23:40;;;;;;;5.03;3.38;;;;;;;20.76;100.00;100902.66;5021880;28;20025;-73
2023/05/20 07:26:06;;;;;;;7.03;5.78;;;;;;;20.73;100.00;100902.78;5025336;28;20064;-73
2023/05/20 07:28:31;;;;;;;5.93;4.25;;;;;;;20.36;100.00;100898.63;5017411;28;20049;-71
2023/05/20 07:30:59;;;;;;;6.22;4.32;;;;;;;20.79;100.00;100891.91;5019424;28;20045;-73
2023/05/20 07:33:24;;;;;;;7.93;4.57;;;;;;;20.77;100.00;100896.41;5022882;28;20045;-71
2023/05/20 07:35:50;;;;;;;10.20;4.80;;;;;;;20.17;100.00;100789.09;5018261;28;20055;-72
2023/05/20 07:38:16;;;;;;;7.38;4.40;;;;;;;20.34;100.00;100888.94;5035199;28;20553;-74
2023/05/20 07:40:41;;;;;;;5.95;3.70;;;;;;;20.02;100.00;100811.81;5022378;28;20045;-71
2023/05/20 07:43:07;;;;;;;7.95;5.60;;;;;;;19.44;100.00;100763.03;5021376;28;20069;-77
2023/05/20 07:45:36;;;;;;;12.88;5.93;;;;;;;20.40;100.00;100862.97;5022279;28;20045;-76
2023/05/20 07:48:02;;;;;;;6.57;4.80;;;;;;;19.86;100.00;100781.28;5023581;28;20718;-75
2023/05/20 07:50:28;;;;;;;6.22;4.05;;;;;;;20.60;100.00;100888.09;5025832;28;20481;-83
2023/05/20 07:52:53;;;;;;;13.30;5.28;;;;;;;20.41;100.00;100854.03;5020555;28;20056;-80
2023/05/20 07:55:19;;;;;;;9.77;3.78;;;;;;;19.71;100.00;100755.97;5025531;28;20041;-81
2023/05/20 07:57:44;;;;;;;7.38;3.95;;;;;;;19.79;100.00;100795.69;5025970;28;20037;-77
2023/05/20 08:00:11;;;;;;;7.20;5.22;;;;;;;20.57;100.00;100898.88;5024433;28;20508;-74
2023/05/20 08:02:36;;;;;;;23.13;4.95;;;;;;;20.74;100.00;100883.16;5022429;28;20041;-77
2023/05/20 08:05:02;;;;;;;8.15;4.93;;;;;;;19.96;100.00;100747.22;5025536;28;20041;-77
2023/05/20 08:07:27;;;;;;;6.38;4.03;;;;;;;20.76;100.00;100891.97;5035062;28;20462;-82
2023/05/20 08:09:53;;;;;;;7.78;4.45;;;;;;;20.52;100.00;100795.03;5023734;28;20056;-77
2023/05/20 08:12:18;;;;;;;8.57;3.85;;;;;;;20.90;100.00;100896.84;5016236;28;20045;-75
2023/05/20 08:14:44;;;;;;;7.43;4.85;;;;;;;20.52;100.00;100805.69;5021906;28;20046;-76
2023/05/20 08:17:09;;;;;;;11.60;4.57;;;;;;;21.07;100.00;100888.22;5021170;28;20041;-76
2023/05/20 08:19:35;;;;;;;5.82;3.55;;;;;;;20.81;100.00;100889.16;5025862;28;20057;-77
2023/05/20 08:22:01;;;;;;;6.55;4.28;;;;;;;20.74;100.00;100789.81;5026136;28;20054;-75
2023/05/20 08:24:26;;;;;;;5.30;3.55;;;;;;;21.26;100.00;100869.78;5022693;28;20092;-76
2023/05/20 08:26:52;;;;;;;5.45;3.38;;;;;;;21.26;100.00;100892.00;5028493;28;20033;-75
2023/05/20 08:29:17;;;;;;;6.13;4.15;;;;;;;21.63;100.00;100890.66;5017945;28;20568;-76
2023/05/20 08:31:43;;;;;;;8.20;3.63;;;;;;;20.93;100.00;100815.81;4995311;28;20691;-81
2023/05/20 08:34:08;;;;;;;4.72;3.22;;;;;;;21.16;100.00;100821.19;5028315;28;20076;-77
2023/05/20 08:36:34;;;;;;;8.07;3.92;;;;;;;21.29;100.00;100842.97;5021601;28;20073;-77
2023/05/20 08:39:00;;;;;;;6.10;3.30;;;;;;;20.86;100.00;100805.41;5011670;28;20065;-78
2023/05/20 08:41:26;;;;;;;9.48;4.32;;;;;;;21.00;100.00;100802.22;5035436;28;20148;-77
2023/05/20 08:43:53;;;;;;;5.22;2.97;;;;;;;21.20;100.00;100788.13;5026691;28;20658;-78
2023/05/20 08:46:21;;;;;;;6.97;3.65;;;;;;;21.56;100.00;100784.09;5020284;28;20054;-79
2023/05/20 08:48:47;;;;;;;5.03;3.60;;;;;;;22.39;100.00;100898.38;5022998;28;20049;-79
2023/05/20 08:51:15;;;;;;;6.07;3.63;;;;;;;21.92;100.00;100870.81;5028374;28;20034;-76
2023/05/20 08:53:40;;;;;;;4.72;3.50;;;;;;;21.87;100.00;100794.44;5028179;28;20509;-75
2023/05/20 08:56:08;;;;;;;8.45;4.07;;;;;;;22.65;100.00;100881.25;5025970;28;20034;-76
2023/05/20 08:58:34;;;;;;;5.45;3.67;;;;;;;22.11;100.00;100779.19;5028042;28;20021;-78
2023/05/20 09:00:59;;;;;;;8.07;4.47;;;;;;;22.84;100.00;100884.00;5025878;28;20121;-71
2023/05/20 09:03:25;;;;;;;5.03;3.05;;;;;;;22.51;100.00;100783.72;5019211;28;20037;-70
2023/05/20 09:05:51;;;;;;;6.78;3.83;;;;;;;23.38;98.54;100880.66;5018806;28;20037;-72
2023/05/20 09:08:17;;;;;;;5.82;2.97;;;;;;;23.71;95.24;100874.69;5009616;28;20505;-74
2023/05/20 09:10:42;;;;;;;5.40;3.70;;;;;;;23.28;92.35;100875.81;5036578;28;20072;-71
2023/05/20 09:13:09;;;;;;;6.50;3.65;;;;;;;23.39;88.25;100877.06;5023621;28;20044;-72
2023/05/20 09:15:36;;;;;;;7.20;3.65;;;;;;;22.70;87.92;100797.16;5019723;28;20803;-71
2023/05/20 09:18:03;;;;;;;7.82;4.20;;;;;;;23.70;86.48;100830.09;5020912;28;20104;-72
2023/05/20 09:20:30;;;;;;;7.00;3.80;;;;;;;23.82;78.93;100798.31;5014286;28;20142;-72
2023/05/20 09:23:01;;;;;;;6.22;3.95;;;;;;;23.81;77.27;100765.25;5012622;28;20042;-73
2023/05/20 09:25:28;;;;;;;4.00;2.53;;;;;;;23.80;79.52;100785.84;5009177;28;20053;-71
2023/05/20 09:27:54;;;;;;;6.75;4.00;;;;;;;23.70;76.73;100741.66;5017606;28;20144;-77
2023/05/20 09:30:21;;;;;;;7.50;4.60;;;;;;;23.98;76.32;100845.72;5020502;28;20516;-82
2023/05/20 09:32:57;;;;;;;9.20;3.75;;;;;;;24.50;74.46;100828.00;5014841;28;20417;-77
2023/05/20 09:35:23;;;;;;;8.55;4.00;;;;;;;24.42;74.04;100778.25;5017438;28;20050;-80
2023/05/20 09:37:53;;;;;;;10.00;5.03;;;;;;;23.77;71.75;100683.31;5019588;28;20032;-75
2023/05/20 09:40:22;;;;;;;5.32;3.30;;;;;;;24.09;71.96;100756.72;5019146;28;20049;-81
2023/05/20 09:42:58;;;;;;;8.30;3.40;;;;;;;24.36;71.54;100823.31;5022246;28;20780;-79
2023/05/20 09:45:24;;;;;;;5.43;3.47;;;;;;;24.10;67.02;100833.53;5022435;28;20119;-76
2023/05/20 09:47:51;;;;;;;6.32;3.55;;;;;;;24.63;63.39;100741.41;5023786;28;20148;-75
2023/05/20 09:50:20;;;;;;;7.40;3.72;;;;;;;25.52;62.27;100842.28;5027331;28;20064;-75
2023/05/20 09:52:47;;;;;;;5.28;3.58;;;;;;;24.73;63.91;100835.72;5022494;28;20045;-78
2023/05/20 09:55:14;;;;;;;4.38;2.92;;;;;;;24.00;65.37;100746.47;5022093;28;20723;-78
2023/05/20 09:57:40;;;;;;;12.00;3.33;;;;;;;23.80;65.76;100823.34;5022301;28;20163;-76
2023/05/20 10:00:12;;;;;;;4.90;3.70;;;;;;;24.31;65.84;100850.34;5019165;28;20493;-77
2023/05/20 10:02:37;;;;;;;4.93;3.40;;;;;;;24.20;64.53;100856.25;5032046;28;20041;-77
2023/05/20 10:05:10;;;;;;;7.03;4.10;;;;;;;22.53;68.20;100663.31;5024321;28;20582;-78
2023/05/20 10:07:52;;;;;;;5.10;3.30;;;;;;;23.57;68.02;100802.13;5017823;28;20128;-76
2023/05/20 10:10:21;;;;;;;6.90;3.78;;;;;;;24.28;67.46;100833.53;5034741;28;20124;-76
2023/05/20 10:13:12;;;;;;;5.53;4.25;;;;;;;24.41;65.67;100824.78;5032041;28;20060;-76
2023/05/20 10:15:52;;;;;;;6.95;3.90;;;;;;;23.84;64.94;100698.13;5028905;28;20065;-76
2023/05/20 10:18:36;;;;;;;6.40;3.30;;;;;;;25.11;56.86;100818.53;5018147;28;20049;-74
2023/05/20 10:21:14;;;;;;;6.18;3.72;;;;;;;25.32;56.59;100814.69;5005267;28;20069;-77
2023/05/20 10:23:40;;;;;;;5.78;3.53;;;;;;;26.25;55.67;100818.41;4998604;28;20069;-75
2023/05/20 10:26:06;;;;;;;6.93;6.10;;;;;;;24.67;55.69;100760.03;5002910;28;20188;-77
2023/05/20 10:28:36;;;;;;;5.68;3.90;;;;;;;24.89;56.79;100798.22;5000631;28;20049;-76
2023/05/20 10:31:13;;;;;;;7.10;4.20;;;;;;;25.76;56.52;100719.06;5013487;28;20173;-74
2023/05/20 10:33:43;;;;;;;5.65;4.30;;;;;;;26.16;57.56;100776.78;5008381;28;20107;-73
2023/05/20 10:36:08;;;;;;;6.22;4.38;;;;;;;25.21;55.97;100712.34;5012060;28;20048;-74
2023/05/20 10:38:34;;;;;;;5.55;4.05;;;;;;;26.00;55.44;100778.63;4999323;28;20073;-74
2023/05/20 10:41:12;;;;;;;4.47;2.40;;;;;;;26.61;54.07;100784.88;5000121;28;20030;-73
2023/05/20 10:43:37;;;;;;;7.15;3.15;;;;;;;27.56;51.67;100795.09;4996460;28;20562;-77
2023/05/20 10:46:03;;;;;;;4.70;2.95;;;;;;;27.56;48.50;100785.19;5005801;28;20080;-76
2023/05/20 10:48:33;;;;;;;7.57;4.50;;;;;;;27.21;47.12;100757.81;5004676;28;20474;-74
2023/05/20 10:51:05;;;;;;;6.70;4.63;;;;;;;27.63;48.17;100769.47;5003268;28;20046;-74
2023/05/20 10:53:43;;;;;;;5.07;3.53;;;;;;;28.21;47.51;100780.91;5010976;28;20060;-75
2023/05/20 10:56:17;;;;;;;6.43;3.90;;;;;;;28.44;45.78;100768.53;5001897;28;20106;-77
2023/05/20 10:58:43;;;;;;;16.77;3.50;;;;;;;27.54;45.86;100708.91;5013408;28;20079;-76
2023/05/20 11:01:10;;;;;;;4.72;2.35;;;;;;;26.00;47.21;100719.47;5010992;28;20049;-76
2023/05/20 11:03:36;;;;;;;6.22;3.83;;;;;;;26.27;46.81;100682.84;5007961;28;20053;-76
2023/05/20 11:06:10;;;;;;;5.13;3.92;;;;;;;26.51;46.51;100771.09;5005430;28;20062;-76
2023/05/20 11:08:35;;;;;;;5.05;3.50;;;;;;;27.26;44.90;100769.16;5006598;28;20100;-75
2023/05/20 11:11:01;;;;;;;8.00;3.95;;;;;;;26.74;48.55;100697.88;5004142;28;20049;-75
2023/05/20 11:13:27;;;;;;;8.20;4.18;;;;;;;25.59;48.47;100652.84;5006875;28;20041;-75